sensor_id;sensor_type;location;lat;lon;timestamp;pressure;altitude;pressure_sealevel;temperature;humidity
65758;BME280;52495;52.208;5.158;2023-04-10T00:01:32;101997.06;;;10.96;59.49
65758;BME280;52495;52.208;5.158;2023-04-10T00:04:00;101999.63;;;10.99;59.73
65758;BME280;52495;52.208;5.158;2023-04-10T00:06:29;101999.63;;;10.97;59.55
65758;BME280;52495;52.208;5.158;2023-04-10T00:08:56;101995.34;;;10.98;59.70
65758;BME280;52495;52.208;5.158;2023-04-10T00:11:23;101984.97;;;10.96;60.23
65758;BME280;52495;52.208;5.158;2023-04-10T00:13:50;101981.53;;;10.94;59.83
65758;BME280;52495;52.208;5.158;2023-04-10T00:16:18;101988.44;;;10.93;59.45
65758;BME280;52495;52.208;5.158;2023-04-10T00:18:45;101979.84;;;10.93;59.76
65758;BME280;52495;52.208;5.158;2023-04-10T00:21:12;101967.75;;;10.93;59.77
65758;BME280;52495;52.208;5.158;2023-04-10T00:23:39;101960.00;;;10.90;59.84
65758;BME280;52495;52.208;5.158;2023-04-10T00:26:06;101960.03;;;10.89;59.93
65758;BME280;52495;52.208;5.158;2023-04-10T00:28:32;101954.00;;;10.87;60.29
65758;BME280;52495;52.208;5.158;2023-04-10T00:31:02;101948.81;;;10.87;60.28
65758;BME280;52495;52.208;5.158;2023-04-10T00:33:30;101942.81;;;10.83;60.77
65758;BME280;52495;52.208;5.158;2023-04-10T00:35:58;101947.97;;;10.83;60.20
65758;BME280;52495;52.208;5.158;2023-04-10T00:38:25;101939.34;;;10.80;60.56
65758;BME280;52495;52.208;5.158;2023-04-10T00:40:52;101942.81;;;10.83;60.64
65758;BME280;52495;52.208;5.158;2023-04-10T00:43:19;101947.13;;;10.73;61.27
65758;BME280;52495;52.208;5.158;2023-04-10T00:45:46;101936.78;;;10.73;61.05
65758;BME280;52495;52.208;5.158;2023-04-10T00:48:13;101935.06;;;10.69;61.38
65758;BME280;52495;52.208;5.158;2023-04-10T00:50:44;101933.34;;;10.67;61.08
65758;BME280;52495;52.208;5.158;2023-04-10T00:53:11;101938.50;;;10.68;61.34
65758;BME280;52495;52.208;5.158;2023-04-10T00:55:38;101934.16;;;10.61;61.41
65758;BME280;52495;52.208;5.158;2023-04-10T00:58:06;101935.03;;;10.63;62.10
65758;BME280;52495;52.208;5.158;2023-04-10T01:00:33;101929.00;;;10.61;61.96
65758;BME280;52495;52.208;5.158;2023-04-10T01:03:00;101934.19;;;10.59;61.66
65758;BME280;52495;52.208;5.158;2023-04-10T01:05:29;101930.75;;;10.60;62.44
65758;BME280;52495;52.208;5.158;2023-04-10T01:08:08;101924.69;;;10.60;62.12
65758;BME280;52495;52.208;5.158;2023-04-10T01:10:43;101922.13;;;10.60;62.08
65758;BME280;52495;52.208;5.158;2023-04-10T01:13:17;101916.09;;;10.56;62.49
65758;BME280;52495;52.208;5.158;2023-04-10T01:15:48;101915.25;;;10.56;62.83
65758;BME280;52495;52.208;5.158;2023-04-10T01:18:21;101909.22;;;10.54;62.50
65758;BME280;52495;52.208;5.158;2023-04-10T01:20:50;101903.19;;;10.53;62.64
65758;BME280;52495;52.208;5.158;2023-04-10T01:26:35;101901.47;;;10.49;63.33
65758;BME280;52495;52.208;5.158;2023-04-10T01:29:08;101892.88;;;10.47;63.33
65758;BME280;52495;52.208;5.158;2023-04-10T01:31:38;101889.44;;;10.45;63.07
65758;BME280;52495;52.208;5.158;2023-04-10T01:34:09;101891.13;;;10.43;63.05
65758;BME280;52495;52.208;5.158;2023-04-10T01:36:41;101885.97;;;10.47;63.37
65758;BME280;52495;52.208;5.158;2023-04-10T01:39:17;101879.09;;;10.45;63.51
65758;BME280;52495;52.208;5.158;2023-04-10T01:41:45;101878.22;;;10.47;63.31
65758;BME280;52495;52.208;5.158;2023-04-10T01:44:15;101875.66;;;10.49;63.16
65758;BME280;52495;52.208;5.158;2023-04-10T01:46:47;101877.38;;;10.47;63.71
65758;BME280;52495;52.208;5.158;2023-04-10T01:49:14;101879.97;;;10.47;63.73
65758;BME280;52495;52.208;5.158;2023-04-10T01:51:42;101871.34;;;10.45;63.13
65758;BME280;52495;52.208;5.158;2023-04-10T01:54:11;101867.03;;;10.45;63.44
65758;BME280;52495;52.208;5.158;2023-04-10T01:56:39;101868.75;;;10.43;63.36
65758;BME280;52495;52.208;5.158;2023-04-10T01:59:06;101858.44;;;10.43;63.91
65758;BME280;52495;52.208;5.158;2023-04-10T02:01:35;101862.75;;;10.40;64.31
65758;BME280;52495;52.208;5.158;2023-04-10T02:04:02;101869.59;;;10.36;64.50
65758;BME280;52495;52.208;5.158;2023-04-10T02:06:39;101865.34;;;10.38;63.66
65758;BME280;52495;52.208;5.158;2023-04-10T02:09:15;101861.84;;;10.35;64.73
65758;BME280;52495;52.208;5.158;2023-04-10T02:11:50;101868.72;;;10.31;65.02
65758;BME280;52495;52.208;5.158;2023-04-10T02:14:21;101867.00;;;10.33;63.92
65758;BME280;52495;52.208;5.158;2023-04-10T02:16:54;101858.41;;;10.34;64.91
65758;BME280;52495;52.208;5.158;2023-04-10T02:19:24;101858.41;;;10.31;64.27
65758;BME280;52495;52.208;5.158;2023-04-10T02:21:53;101863.59;;;10.32;64.56
65758;BME280;52495;52.208;5.158;2023-04-10T02:24:21;101858.41;;;10.32;64.76
65758;BME280;52495;52.208;5.158;2023-04-10T02:26:50;101851.50;;;10.35;64.40
65758;BME280;52495;52.208;5.158;2023-04-10T02:29:18;101854.09;;;10.30;64.56
65758;BME280;52495;52.208;5.158;2023-04-10T02:31:45;101849.78;;;10.29;63.99
65758;BME280;52495;52.208;5.158;2023-04-10T02:34:14;101852.38;;;10.23;65.34
65758;BME280;52495;52.208;5.158;2023-04-10T02:36:41;101853.25;;;10.22;64.98
65758;BME280;52495;52.208;5.158;2023-04-10T02:39:10;101850.66;;;10.18;64.70
65758;BME280;52495;52.208;5.158;2023-04-10T02:41:45;101853.22;;;10.20;65.38
65758;BME280;52495;52.208;5.158;2023-04-10T02:44:13;101848.94;;;10.17;65.97
65758;BME280;52495;52.208;5.158;2023-04-10T02:46:41;101855.81;;;10.15;65.57
65758;BME280;52495;52.208;5.158;2023-04-10T02:49:08;101861.84;;;10.14;65.56
65758;BME280;52495;52.208;5.158;2023-04-10T02:51:36;101860.97;;;10.15;65.32
65758;BME280;52495;52.208;5.158;2023-04-10T02:54:03;101860.13;;;10.15;65.81
65758;BME280;52495;52.208;5.158;2023-04-10T02:56:32;101866.13;;;10.12;65.55
65758;BME280;52495;52.208;5.158;2023-04-10T02:58:59;101866.13;;;10.12;64.77
65758;BME280;52495;52.208;5.158;2023-04-10T03:01:29;101864.41;;;10.11;65.53
65758;BME280;52495;52.208;5.158;2023-04-10T03:03:56;101865.25;;;10.10;65.64
65758;BME280;52495;52.208;5.158;2023-04-10T03:06:27;101860.13;;;10.09;65.17
65758;BME280;52495;52.208;5.158;2023-04-10T03:08:56;101864.41;;;10.10;65.95
65758;BME280;52495;52.208;5.158;2023-04-10T03:11:25;101859.22;;;10.08;65.78
65758;BME280;52495;52.208;5.158;2023-04-10T03:13:52;101854.06;;;10.08;66.04
65758;BME280;52495;52.208;5.158;2023-04-10T03:16:19;101863.53;;;10.05;66.05
65758;BME280;52495;52.208;5.158;2023-04-10T03:18:46;101863.56;;;10.06;65.81
65758;BME280;52495;52.208;5.158;2023-04-10T03:21:14;101862.69;;;10.04;65.83
65758;BME280;52495;52.208;5.158;2023-04-10T03:23:41;101856.66;;;10.03;65.25
65758;BME280;52495;52.208;5.158;2023-04-10T03:26:10;101862.66;;;9.99;65.68
65758;BME280;52495;52.208;5.158;2023-04-10T03:28:37;101848.06;;;9.98;65.87
65758;BME280;52495;52.208;5.158;2023-04-10T03:31:08;101845.50;;;9.98;65.73
65758;BME280;52495;52.208;5.158;2023-04-10T03:33:38;101844.63;;;9.96;65.84
65758;BME280;52495;52.208;5.158;2023-04-10T03:36:06;101842.88;;;9.97;66.34
65758;BME280;52495;52.208;5.158;2023-04-10T03:38:33;101841.19;;;9.97;66.48
65758;BME280;52495;52.208;5.158;2023-04-10T03:41:01;101838.59;;;9.96;66.23
65758;BME280;52495;52.208;5.158;2023-04-10T03:43:31;101836.88;;;9.96;66.13
65758;BME280;52495;52.208;5.158;2023-04-10T03:46:00;101832.56;;;9.95;66.06
65758;BME280;52495;52.208;5.158;2023-04-10T03:48:28;101834.28;;;9.95;65.72
65758;BME280;52495;52.208;5.158;2023-04-10T03:50:55;101830.84;;;9.96;65.48
65758;BME280;52495;52.208;5.158;2023-04-10T03:53:22;101828.25;;;9.93;65.61
65758;BME280;52495;52.208;5.158;2023-04-10T03:55:52;101824.81;;;9.91;66.00
65758;BME280;52495;52.208;5.158;2023-04-10T03:58:20;101823.97;;;9.90;65.16
65758;BME280;52495;52.208;5.158;2023-04-10T04:00:50;101818.81;;;9.89;66.13
65758;BME280;52495;52.208;5.158;2023-04-10T04:03:26;101814.50;;;9.92;65.81
65758;BME280;52495;52.208;5.158;2023-04-10T04:06:24;101811.91;;;9.89;65.79
65758;BME280;52495;52.208;5.158;2023-04-10T04:09:24;101812.75;;;9.85;65.69
65758;BME280;52495;52.208;5.158;2023-04-10T04:12:01;101811.91;;;9.86;66.13
65758;BME280;52495;52.208;5.158;2023-04-10T04:14:46;101809.34;;;9.86;66.14
65758;BME280;52495;52.208;5.158;2023-04-10T04:17:54;101811.06;;;9.85;66.09
65758;BME280;52495;52.208;5.158;2023-04-10T04:20:35;101811.91;;;9.84;66.38
65758;BME280;52495;52.208;5.158;2023-04-10T04:23:20;101805.03;;;9.83;65.83
65758;BME280;52495;52.208;5.158;2023-04-10T04:26:03;101807.63;;;9.88;65.89
65758;BME280;52495;52.208;5.158;2023-04-10T04:28:50;101799.00;;;9.86;65.70
65758;BME280;52495;52.208;5.158;2023-04-10T04:31:49;101795.59;;;9.81;66.03
65758;BME280;52495;52.208;5.158;2023-04-10T04:34:38;101779.25;;;9.79;65.99
65758;BME280;52495;52.208;5.158;2023-04-10T04:37:20;101789.56;;;9.79;66.67
65758;BME280;52495;52.208;5.158;2023-04-10T04:40:10;101786.09;;;9.75;65.75
65758;BME280;52495;52.208;5.158;2023-04-10T04:43:06;101779.25;;;9.71;66.20
65758;BME280;52495;52.208;5.158;2023-04-10T04:45:57;101786.09;;;9.69;65.78
65758;BME280;52495;52.208;5.158;2023-04-10T04:48:42;101784.38;;;9.66;66.18
65758;BME280;52495;52.208;5.158;2023-04-10T04:51:30;101783.50;;;9.63;66.63
65758;BME280;52495;52.208;5.158;2023-04-10T04:54:11;101786.09;;;9.64;66.13
65758;BME280;52495;52.208;5.158;2023-04-10T04:56:57;101786.94;;;9.60;66.90
65758;BME280;52495;52.208;5.158;2023-04-10T04:59:43;101780.06;;;9.57;66.57
65758;BME280;52495;52.208;5.158;2023-04-10T05:02:30;101776.63;;;9.59;66.19
65758;BME280;52495;52.208;5.158;2023-04-10T05:05:15;101768.03;;;9.55;66.78
65758;BME280;52495;52.208;5.158;2023-04-10T05:07:54;101767.16;;;9.50;66.73
65758;BME280;52495;52.208;5.158;2023-04-10T05:10:48;101764.56;;;9.50;66.82
65758;BME280;52495;52.208;5.158;2023-04-10T05:13:32;101778.31;;;9.52;66.63
65758;BME280;52495;52.208;5.158;2023-04-10T05:16:24;101775.72;;;9.49;66.76
65758;BME280;52495;52.208;5.158;2023-04-10T05:18:51;101773.16;;;9.49;67.02
65758;BME280;52495;52.208;5.158;2023-04-10T05:21:37;101770.56;;;9.49;67.54
65758;BME280;52495;52.208;5.158;2023-04-10T05:24:26;101759.41;;;9.50;66.99
65758;BME280;52495;52.208;5.158;2023-04-10T05:27:19;101765.44;;;9.46;67.33
65758;BME280;52495;52.208;5.158;2023-04-10T05:30:06;101764.59;;;9.47;67.74
65758;BME280;52495;52.208;5.158;2023-04-10T05:32:54;101761.13;;;9.46;67.46
65758;BME280;52495;52.208;5.158;2023-04-10T05:35:42;101773.16;;;9.49;67.08
65758;BME280;52495;52.208;5.158;2023-04-10T05:38:24;101769.72;;;9.50;67.80
65758;BME280;52495;52.208;5.158;2023-04-10T05:41:14;101768.03;;;9.55;67.79
65758;BME280;52495;52.208;5.158;2023-04-10T05:44:01;101770.59;;;9.52;67.78
65758;BME280;52495;52.208;5.158;2023-04-10T05:46:51;101774.88;;;9.50;67.65
65758;BME280;52495;52.208;5.158;2023-04-10T05:49:47;101767.16;;;9.50;66.56
65758;BME280;52495;52.208;5.158;2023-04-10T05:52:13;101765.44;;;9.52;66.83
65758;BME280;52495;52.208;5.158;2023-04-10T05:54:46;101767.19;;;9.59;66.98
65758;BME280;52495;52.208;5.158;2023-04-10T05:57:30;101763.75;;;9.60;67.13
65758;BME280;52495;52.208;5.158;2023-04-10T06:00:21;101760.31;;;9.63;66.88
65758;BME280;52495;52.208;5.158;2023-04-10T06:03:06;101762.91;;;9.72;65.39
65758;BME280;52495;52.208;5.158;2023-04-10T06:05:44;101755.16;;;9.69;65.60
65758;BME280;52495;52.208;5.158;2023-04-10T06:08:11;101750.00;;;9.74;66.00
65758;BME280;52495;52.208;5.158;2023-04-10T06:10:39;101740.56;;;9.79;65.58
65758;BME280;52495;52.208;5.158;2023-04-10T06:13:11;101744.00;;;9.81;65.57
65758;BME280;52495;52.208;5.158;2023-04-10T06:15:39;101737.09;;;9.83;65.14
65758;BME280;52495;52.208;5.158;2023-04-10T06:18:06;101743.13;;;9.83;64.55
65758;BME280;52495;52.208;5.158;2023-04-10T06:20:53;101742.28;;;9.87;63.91
65758;BME280;52495;52.208;5.158;2023-04-10T06:23:22;101738.84;;;9.95;64.58
65758;BME280;52495;52.208;5.158;2023-04-10T06:25:49;101734.56;;;9.98;63.75
65758;BME280;52495;52.208;5.158;2023-04-10T06:28:18;101728.50;;;9.99;63.57
65758;BME280;52495;52.208;5.158;2023-04-10T06:30:48;101713.91;;;10.03;63.61
65758;BME280;52495;52.208;5.158;2023-04-10T06:33:15;101713.03;;;10.07;63.04
65758;BME280;52495;52.208;5.158;2023-04-10T06:35:43;101713.88;;;10.17;62.93
65758;BME280;52495;52.208;5.158;2023-04-10T06:38:10;101705.25;;;10.18;62.91
65758;BME280;52495;52.208;5.158;2023-04-10T06:40:38;101694.94;;;10.21;62.71
65758;BME280;52495;52.208;5.158;2023-04-10T06:43:05;101695.78;;;10.25;63.12
65758;BME280;52495;52.208;5.158;2023-04-10T06:45:38;101683.75;;;10.27;62.64
65758;BME280;52495;52.208;5.158;2023-04-10T06:48:05;101678.56;;;10.42;61.54
65758;BME280;52495;52.208;5.158;2023-04-10T06:50:34;101676.88;;;10.43;61.83
65758;BME280;52495;52.208;5.158;2023-04-10T06:53:01;101668.22;;;10.52;61.54
65758;BME280;52495;52.208;5.158;2023-04-10T06:55:28;101667.34;;;10.56;61.25
65758;BME280;52495;52.208;5.158;2023-04-10T06:57:55;101664.78;;;10.59;60.92
65758;BME280;52495;52.208;5.158;2023-04-10T07:00:22;101657.00;;;10.63;61.40
65758;BME280;52495;52.208;5.158;2023-04-10T07:02:50;101656.94;;;10.70;60.61
65758;BME280;52495;52.208;5.158;2023-04-10T07:05:18;101651.78;;;10.73;59.83
65758;BME280;52495;52.208;5.158;2023-04-10T07:07:46;101646.59;;;10.82;59.44
65758;BME280;52495;52.208;5.158;2023-04-10T07:10:15;101651.69;;;10.88;59.91
65758;BME280;52495;52.208;5.158;2023-04-10T07:12:42;101649.13;;;10.93;59.28
65758;BME280;52495;52.208;5.158;2023-04-10T07:15:09;101652.53;;;10.93;58.98
65758;BME280;52495;52.208;5.158;2023-04-10T07:17:36;101643.03;;;10.97;59.17
65758;BME280;52495;52.208;5.158;2023-04-10T07:20:06;101634.38;;;11.06;59.33
65758;BME280;52495;52.208;5.158;2023-04-10T07:22:33;101632.59;;;11.16;58.46
65758;BME280;52495;52.208;5.158;2023-04-10T07:25:00;101630.00;;;11.17;58.48
65758;BME280;52495;52.208;5.158;2023-04-10T07:27:27;101619.59;;;11.23;58.91
65758;BME280;52495;52.208;5.158;2023-04-10T07:29:54;101623.88;;;11.31;58.70
65758;BME280;52495;52.208;5.158;2023-04-10T07:32:22;101614.34;;;11.37;57.88
65758;BME280;52495;52.208;5.158;2023-04-10T07:34:49;101624.56;;;11.50;58.38
65758;BME280;52495;52.208;5.158;2023-04-10T07:37:17;101613.28;;;11.60;57.76
65758;BME280;52495;52.208;5.158;2023-04-10T07:39:44;101613.16;;;11.71;57.97
65758;BME280;52495;52.208;5.158;2023-04-10T07:42:12;101610.47;;;11.83;57.36
65758;BME280;52495;52.208;5.158;2023-04-10T07:44:38;101593.16;;;11.90;56.63
65758;BME280;52495;52.208;5.158;2023-04-10T07:47:06;101589.69;;;11.91;56.43
65758;BME280;52495;52.208;5.158;2023-04-10T07:49:33;101585.31;;;11.99;55.87
65758;BME280;52495;52.208;5.158;2023-04-10T07:52:00;101580.13;;;11.99;55.85
65758;BME280;52495;52.208;5.158;2023-04-10T07:54:30;101586.13;;;12.05;55.12
65758;BME280;52495;52.208;5.158;2023-04-10T07:56:57;101582.66;;;12.06;55.86
65758;BME280;52495;52.208;5.158;2023-04-10T07:59:25;101591.28;;;12.08;55.27
65758;BME280;52495;52.208;5.158;2023-04-10T08:01:52;101585.19;;;12.10;55.28
65758;BME280;52495;52.208;5.158;2023-04-10T08:04:19;101579.94;;;12.18;55.32
65758;BME280;52495;52.208;5.158;2023-04-10T08:06:46;101580.88;;;12.09;55.36
65758;BME280;52495;52.208;5.158;2023-04-10T08:09:14;101578.16;;;12.22;55.65
65758;BME280;52495;52.208;5.158;2023-04-10T08:11:42;101582.50;;;12.18;55.63
65758;BME280;52495;52.208;5.158;2023-04-10T08:14:09;101573.91;;;12.16;54.83
65758;BME280;52495;52.208;5.158;2023-04-10T08:16:37;101578.16;;;12.23;55.29
65758;BME280;52495;52.208;5.158;2023-04-10T08:19:04;101567.72;;;12.29;55.39
65758;BME280;52495;52.208;5.158;2023-04-10T08:21:33;101559.91;;;12.33;55.61
65758;BME280;52495;52.208;5.158;2023-04-10T08:24:01;101552.03;;;12.40;55.63
65758;BME280;52495;52.208;5.158;2023-04-10T08:26:29;101548.44;;;12.49;55.63
65758;BME280;52495;52.208;5.158;2023-04-10T08:28:59;101538.84;;;12.57;55.23
65758;BME280;52495;52.208;5.158;2023-04-10T08:31:27;101537.09;;;12.59;54.87
65758;BME280;52495;52.208;5.158;2023-04-10T08:33:55;101545.72;;;12.62;55.30
65758;BME280;52495;52.208;5.158;2023-04-10T08:36:22;101534.44;;;12.64;55.85
65758;BME280;52495;52.208;5.158;2023-04-10T08:38:49;101519.81;;;12.62;55.04
65758;BME280;52495;52.208;5.158;2023-04-10T08:41:17;101518.97;;;12.59;55.19
65758;BME280;52495;52.208;5.158;2023-04-10T08:43:45;101521.53;;;12.63;55.04
65758;BME280;52495;52.208;5.158;2023-04-10T08:46:14;101525.75;;;12.68;55.36
65758;BME280;52495;52.208;5.158;2023-04-10T08:48:45;101524.97;;;12.62;54.97
65758;BME280;52495;52.208;5.158;2023-04-10T08:51:17;101535.38;;;12.57;55.12
65758;BME280;52495;52.208;5.158;2023-04-10T08:53:45;101524.22;;;12.55;55.03
65758;BME280;52495;52.208;5.158;2023-04-10T08:56:12;101522.50;;;12.54;55.73
65758;BME280;52495;52.208;5.158;2023-04-10T08:58:42;101526.81;;;12.55;55.80
65758;BME280;52495;52.208;5.158;2023-04-10T09:01:09;101519.78;;;12.63;56.12
65758;BME280;52495;52.208;5.158;2023-04-10T09:03:39;101523.28;;;12.60;55.98
65758;BME280;52495;52.208;5.158;2023-04-10T09:06:06;101515.50;;;12.59;56.07
65758;BME280;52495;52.208;5.158;2023-04-10T09:08:34;101505.97;;;12.61;56.35
65758;BME280;52495;52.208;5.158;2023-04-10T09:11:01;101500.88;;;12.56;55.66
65758;BME280;52495;52.208;5.158;2023-04-10T09:13:36;101493.09;;;12.56;56.05
65758;BME280;52495;52.208;5.158;2023-04-10T09:16:03;101496.44;;;12.63;56.34
65758;BME280;52495;52.208;5.158;2023-04-10T09:18:42;101491.31;;;12.62;56.59
65758;BME280;52495;52.208;5.158;2023-04-10T09:21:14;101487.72;;;12.69;56.63
65758;BME280;52495;52.208;5.158;2023-04-10T09:23:42;101476.41;;;12.74;56.30
65758;BME280;52495;52.208;5.158;2023-04-10T09:26:24;101482.41;;;12.78;56.41
65758;BME280;52495;52.208;5.158;2023-04-10T09:28:59;101476.22;;;12.85;55.89
65758;BME280;52495;52.208;5.158;2023-04-10T09:31:29;101477.03;;;12.90;55.70
65758;BME280;52495;52.208;5.158;2023-04-10T09:34:13;101467.50;;;12.93;55.63
65758;BME280;52495;52.208;5.158;2023-04-10T09:36:41;101458.75;;;12.98;55.61
65758;BME280;52495;52.208;5.158;2023-04-10T09:41:50;101451.63;;;13.10;55.50
65758;BME280;52495;52.208;5.158;2023-04-10T09:44:27;101441.13;;;13.17;55.08
65758;BME280;52495;52.208;5.158;2023-04-10T09:46:55;101444.53;;;13.19;54.64
65758;BME280;52495;52.208;5.158;2023-04-10T09:49:23;101446.09;;;13.28;55.66
65758;BME280;52495;52.208;5.158;2023-04-10T09:51:50;101438.16;;;13.38;55.27
65758;BME280;52495;52.208;5.158;2023-04-10T09:54:17;101421.56;;;13.48;54.67
65758;BME280;52495;52.208;5.158;2023-04-10T09:56:44;101428.25;;;13.60;54.83
65758;BME280;52495;52.208;5.158;2023-04-10T09:59:13;101430.78;;;13.61;54.06
65758;BME280;52495;52.208;5.158;2023-04-10T10:01:41;101419.53;;;13.64;54.10
65758;BME280;52495;52.208;5.158;2023-04-10T10:04:08;101410.75;;;13.70;54.18
65758;BME280;52495;52.208;5.158;2023-04-10T10:06:38;101410.66;;;13.74;54.81
65758;BME280;52495;52.208;5.158;2023-04-10T10:09:05;101406.34;;;13.73;53.87
65758;BME280;52495;52.208;5.158;2023-04-10T10:11:33;101406.16;;;13.81;54.46
65758;BME280;52495;52.208;5.158;2023-04-10T10:14:02;101401.75;;;13.85;53.50
65758;BME280;52495;52.208;5.158;2023-04-10T10:16:33;101393.84;;;13.91;53.89
65758;BME280;52495;52.208;5.158;2023-04-10T10:19:08;101386.06;;;13.91;53.21
65758;BME280;52495;52.208;5.158;2023-04-10T10:21:42;101388.47;;;13.99;53.24
65758;BME280;52495;52.208;5.158;2023-04-10T10:24:10;101377.97;;;14.05;53.06
65758;BME280;52495;52.208;5.158;2023-04-10T10:26:39;101364.03;;;14.07;53.64
65758;BME280;52495;52.208;5.158;2023-04-10T10:29:07;101357.84;;;14.15;52.57
65758;BME280;52495;52.208;5.158;2023-04-10T10:31:36;101357.66;;;14.22;52.88
65758;BME280;52495;52.208;5.158;2023-04-10T10:34:04;101357.53;;;14.27;53.06
65758;BME280;52495;52.208;5.158;2023-04-10T10:36:34;101353.09;;;14.32;53.07
65758;BME280;52495;52.208;5.158;2023-04-10T10:39:17;101346.91;;;14.36;52.53
65758;BME280;52495;52.208;5.158;2023-04-10T10:41:52;101349.53;;;14.35;51.64
65758;BME280;52495;52.208;5.158;2023-04-10T10:44:25;101336.28;;;14.46;52.36
65758;BME280;52495;52.208;5.158;2023-04-10T10:47:03;101332.47;;;14.59;52.35
65758;BME280;52495;52.208;5.158;2023-04-10T10:50:00;101320.06;;;14.70;52.36
65758;BME280;52495;52.208;5.158;2023-04-10T10:52:42;101310.88;;;14.90;52.62
65758;BME280;52495;52.208;5.158;2023-04-10T10:55:32;101313.19;;;15.01;52.21
65758;BME280;52495;52.208;5.158;2023-04-10T10:58:05;101308.63;;;15.09;51.98
65758;BME280;52495;52.208;5.158;2023-04-10T11:01:06;101296.31;;;15.14;52.20
65758;BME280;52495;52.208;5.158;2023-04-10T11:03:33;101293.66;;;15.17;52.26
65758;BME280;52495;52.208;5.158;2023-04-10T11:06:01;101283.22;;;15.19;51.78
65758;BME280;52495;52.208;5.158;2023-04-10T11:08:36;101279.69;;;15.20;51.71
65758;BME280;52495;52.208;5.158;2023-04-10T11:11:10;101272.66;;;15.24;52.31
65758;BME280;52495;52.208;5.158;2023-04-10T11:13:38;101270.63;;;15.33;52.47
65758;BME280;52495;52.208;5.158;2023-04-10T11:16:07;101270.56;;;15.37;52.81
65758;BME280;52495;52.208;5.158;2023-04-10T11:19:03;101259.84;;;15.46;52.43
65758;BME280;52495;52.208;5.158;2023-04-10T11:21:30;101263.03;;;15.54;52.51
65758;BME280;52495;52.208;5.158;2023-04-10T11:24:03;101264.66;;;15.58;51.84
65758;BME280;52495;52.208;5.158;2023-04-10T11:26:39;101261.81;;;15.66;51.62
65758;BME280;52495;52.208;5.158;2023-04-10T11:29:33;101251.28;;;15.71;51.64
65758;BME280;52495;52.208;5.158;2023-04-10T11:32:01;101238.00;;;15.78;51.46
65758;BME280;52495;52.208;5.158;2023-04-10T11:34:29;101226.34;;;15.90;51.12
65758;BME280;52495;52.208;5.158;2023-04-10T11:36:57;101216.47;;;16.00;51.28
65758;BME280;52495;52.208;5.158;2023-04-10T11:39:25;101224.78;;;16.12;51.23
65758;BME280;52495;52.208;5.158;2023-04-10T11:41:54;101208.03;;;16.19;50.79
65758;BME280;52495;52.208;5.158;2023-04-10T11:44:29;101211.34;;;16.24;50.33
65758;BME280;52495;52.208;5.158;2023-04-10T11:46:57;101211.75;;;16.37;50.61
65758;BME280;52495;52.208;5.158;2023-04-10T11:49:26;101212.38;;;16.44;50.61
65758;BME280;52495;52.208;5.158;2023-04-10T11:51:53;101213.13;;;16.47;50.60
65758;BME280;52495;52.208;5.158;2023-04-10T11:54:21;101207.84;;;16.49;50.50
65758;BME280;52495;52.208;5.158;2023-04-10T11:56:58;101198.16;;;16.52;50.67
65758;BME280;52495;52.208;5.158;2023-04-10T11:59:25;101193.00;;;16.51;50.51
65758;BME280;52495;52.208;5.158;2023-04-10T12:01:53;101193.88;;;16.51;50.20
65758;BME280;52495;52.208;5.158;2023-04-10T12:04:22;101186.03;;;16.51;50.12
65758;BME280;52495;52.208;5.158;2023-04-10T12:06:50;101177.44;;;16.49;50.12
65758;BME280;52495;52.208;5.158;2023-04-10T12:09:19;101162.88;;;16.44;50.09
65758;BME280;52495;52.208;5.158;2023-04-10T12:11:51;101169.25;;;16.35;50.49
65758;BME280;52495;52.208;5.158;2023-04-10T12:14:20;101163.28;;;16.31;50.15
65758;BME280;52495;52.208;5.158;2023-04-10T12:16:47;101161.75;;;16.26;50.31
65758;BME280;52495;52.208;5.158;2023-04-10T12:19:15;101143.50;;;16.27;50.67
65758;BME280;52495;52.208;5.158;2023-04-10T12:21:43;101143.78;;;16.19;50.93
65758;BME280;52495;52.208;5.158;2023-04-10T12:24:12;101146.47;;;16.16;51.15
65758;BME280;52495;52.208;5.158;2023-04-10T12:26:46;101138.84;;;16.12;51.05
65758;BME280;52495;52.208;5.158;2023-04-10T12:29:13;101138.97;;;16.07;51.41
65758;BME280;52495;52.208;5.158;2023-04-10T12:31:41;101129.91;;;15.93;51.47
65758;BME280;52495;52.208;5.158;2023-04-10T12:34:08;101125.75;;;15.88;51.57
65758;BME280;52495;52.208;5.158;2023-04-10T12:36:35;101116.22;;;15.88;52.01
65758;BME280;52495;52.208;5.158;2023-04-10T12:39:03;101109.88;;;15.96;51.70
65758;BME280;52495;52.208;5.158;2023-04-10T12:41:33;101098.03;;;15.87;52.79
65758;BME280;52495;52.208;5.158;2023-04-10T12:44:08;101104.16;;;15.84;52.37
65758;BME280;52495;52.208;5.158;2023-04-10T12:46:35;101083.34;;;15.84;52.17
65758;BME280;52495;52.208;5.158;2023-04-10T12:49:10;101083.38;;;15.83;52.43
65758;BME280;52495;52.208;5.158;2023-04-10T12:51:44;101072.16;;;15.81;52.64
65758;BME280;52495;52.208;5.158;2023-04-10T12:54:26;101074.09;;;15.75;52.88
65758;BME280;52495;52.208;5.158;2023-04-10T12:56:53;101073.19;;;15.76;52.90
65758;BME280;52495;52.208;5.158;2023-04-10T12:59:20;101080.22;;;15.74;53.06
65758;BME280;52495;52.208;5.158;2023-04-10T13:01:47;101069.00;;;15.72;53.38
65758;BME280;52495;52.208;5.158;2023-04-10T13:04:15;101066.38;;;15.72;53.45
65758;BME280;52495;52.208;5.158;2023-04-10T13:06:43;101068.03;;;15.75;53.37
65758;BME280;52495;52.208;5.158;2023-04-10T13:09:11;101069.00;;;15.72;53.55
65758;BME280;52495;52.208;5.158;2023-04-10T13:11:38;101074.25;;;15.71;53.72
65758;BME280;52495;52.208;5.158;2023-04-10T13:14:05;101071.81;;;15.66;53.88
65758;BME280;52495;52.208;5.158;2023-04-10T13:16:31;101062.25;;;15.67;54.37
65758;BME280;52495;52.208;5.158;2023-04-10T13:18:58;101058.75;;;15.68;55.38
65758;BME280;52495;52.208;5.158;2023-04-10T13:21:27;101063.25;;;15.62;57.10
65758;BME280;52495;52.208;5.158;2023-04-10T13:23:54;101055.56;;;15.59;57.52